This is the latest recevied weather packets stored in our database for station/object OK2ZI. If no packets are shown the sender has not sent any weather packets the latest 10 day(s).
| Time | Temp. | Humidity | Pressure | Rain* | Wind** | Luminosity | Snow |
|---|---|---|---|---|---|---|---|
| 1777744567 | 18.33° C | 41% | 1017 hPa | 0 mm | - | - | - |
| 1777743966 | 19.44° C | 37% | 1017 hPa | 0 mm | - | - | - |
| 1777743726 | 20° C | 37% | 1017 hPa | 0 mm | - | - | - |
| 1777743611 | 20° C | 36% | 1017 hPa | 0 mm | - | - | - |
| 1777743366 | 20.56° C | 34% | 1017 hPa | 0 mm | - | - | - |
| 1777743246 | 21.11° C | 33% | 1017 hPa | 0 mm | - | - | - |
| 1777740966 | 23.89° C | 25% | 1017 hPa | 0 mm | - | - | - |
| 1777740487 | 22.78° C | 27% | 1017 hPa | 0 mm | - | - | - |
| 1777740367 | 22.78° C | 28% | 1017 hPa | 0 mm | - | - | - |
| 1777740246 | 22.78° C | 28% | 1017 hPa | 0 mm | - | - | - |
| 1777739767 | 23.33° C | 27% | 1017 hPa | 0 mm | - | - | - |
| 1777739526 | 23.33° C | 27% | 1017 hPa | 0 mm | - | - | - |
| 1777739286 | 23.33° C | 27% | 1017 hPa | 0 mm | - | - | - |
| 1777739047 | 25° C | 26% | 1017 hPa | 0 mm | - | - | - |
| 1777738687 | 24.44° C | 27% | 1017 hPa | 0 mm | - | - | - |
| 1777738567 | 24.44° C | 29% | 1017 hPa | 0 mm | - | - | - |
| 1777738447 | 24.44° C | 28% | 1017 hPa | 0 mm | - | - | - |
| 1777738210 | 23.33° C | 26% | 1018 hPa | 0 mm | - | - | - |
| 1777737010 | 25° C | 24% | 1018 hPa | 0 mm | - | - | - |
| 1777736286 | 23.33° C | 26% | 1018 hPa | 0 mm | - | - | - |
| 1777736166 | 22.78° C | 27% | 1018 hPa | 0 mm | - | - | - |
| 1777735447 | 23.33° C | 26% | 1018 hPa | 0 mm | - | - | - |
| 1777733647 | 23.89° C | 25% | 1018 hPa | 0 mm | - | - | - |
| 1777733527 | 23.33° C | 27% | 1018 hPa | 0 mm | - | - | - |
| 1777732566 | 22.78° C | 27% | 1018 hPa | 0 mm | - | - | - |
* Rain latest hour (hover to see other rain measurements)
** Current wind speed in m/s (hover to see current wind gust speed)